Aeroporto :
LOGIN :

Iscrizione | Disclaimer

   EN    FR    IT 

 










Sommario :    VFR   VFR Marginale   IFR   IFR Intensivo   IFR Molto Intensivo
Visibilità : 
Base nubi : 
>= 8 km
>= 3000ft
5 / 8 km
1000 / 3000 ft
1500m / 5 km
500 / 1000 ft
800 / 1500m
200 / 500 ft
< 800m
< 200 ft
Simboli :   Temporali  Nebbia  Neve Forte  Precipitazioni Forti  Vento > 20 kt
SIGMETs :   Varie  Temporali  Ghiacco  Turbolenza  Onda orograficha  Ceneri Vulcaniche







- Altitudine del aeroporto : 1276 ft
- Codice IATA : STR


EDDS - Stuttgart

ULTIMO METAR :
  • 200820Z 29007KT 250V310 9999 -RA FEW011 13/11 Q1004 NOSIG

METARs OBSOLETI :
  • 200750Z 30010KT 9999 -RA SCT011 14/11 Q1004 NOSIG
  • 200720Z 30011KT 9999 FEW008 SCT011 14/11 Q1004 NOSIG
  • 200650Z 30007KT 270V330 9999 FEW008 BKN011 14/11 Q1004 BECMG SCT015
  • 200620Z 25003KT 220V290 9999 FEW004 BKN010 13/11 Q1004 BECMG SCT015
  • 200550Z VRB02KT 9999 FEW003 BKN010 12/11 Q1004 BECMG SCT015

TAF TAF EDDS
Valido dal 20 a 06 ore il 21 a 06 ore UTC


200500Z 2006/2106 29005KT 9999 FEW010 SCT030
TEMPO 2006/2008 BKN012
TEMPO 2010/2020 4000 SHRA BKN012 BKN020CB
PROB30
TEMPO 2012/2019 35015G25KT 2000 +TSRAGR BKN009 BKN015CB
TEMPO 2020/2024 3000 +SHRA BKN009 BKN020CB
TEMPO 2100/2106 4000 RA BKN009
Nessun NOTAM noto per questo aeroporto.



MetMap, La meteo Aeronautica in un colpo d'occhio ! - Copyright ORBIFLY Dicembre 2007 - Disclaimer

ORBIFLY MET'MAP TEAM :

Programmazione e sviluppo : Alexandra Zaïnal
Concezione e sviluppo : Baudouin d'Aumeries
Co-Programmazione e sviluppo : Marc-Olivier Méhu
Supporto tecnico e logistico : Manuel Goepfert
Aiuto per la traduzione : Arnaldo La Scala

Contatto : metmap@orbifly.com




FONTI E CREDITI :

   NOAA